sensor_id;sensor_type;location;lat;lon;timestamp;pressure;altitude;pressure_sealevel;temperature;humidity
72414;BME280;60995;52.154;4.498;2022-12-22T00:00:11;100327.09;;;10.33;90.25
72414;BME280;60995;52.154;4.498;2022-12-22T00:02:46;100323.28;;;10.26;90.15
72414;BME280;60995;52.154;4.498;2022-12-22T00:05:21;100325.81;;;10.47;89.48
72414;BME280;60995;52.154;4.498;2022-12-22T00:07:57;100316.19;;;10.53;89.09
72414;BME280;60995;52.154;4.498;2022-12-22T00:10:31;100327.84;;;10.35;89.95
72414;BME280;60995;52.154;4.498;2022-12-22T00:13:08;100327.78;;;10.55;89.19
72414;BME280;60995;52.154;4.498;2022-12-22T00:15:46;100330.31;;;10.56;89.15
72414;BME280;60995;52.154;4.498;2022-12-22T00:18:20;100332.47;;;10.53;89.78
72414;BME280;60995;52.154;4.498;2022-12-22T00:20:55;100332.97;;;10.66;89.48
72414;BME280;60995;52.154;4.498;2022-12-22T00:23:29;100330.56;;;10.63;89.20
72414;BME280;60995;52.154;4.498;2022-12-22T00:26:04;100335.66;;;10.76;88.34
72414;BME280;60995;52.154;4.498;2022-12-22T00:28:41;100325.56;;;10.68;88.47
72414;BME280;60995;52.154;4.498;2022-12-22T00:31:16;100320.84;;;10.70;88.24
72414;BME280;60995;52.154;4.498;2022-12-22T00:33:52;100312.13;;;10.67;88.43
72414;BME280;60995;52.154;4.498;2022-12-22T00:36:27;100306.75;;;10.85;87.44
72414;BME280;60995;52.154;4.498;2022-12-22T00:39:04;100306.25;;;10.71;88.04
72414;BME280;60995;52.154;4.498;2022-12-22T00:41:45;100303.94;;;10.76;87.74
72414;BME280;60995;52.154;4.498;2022-12-22T00:44:19;100287.38;;;10.80;87.83
72414;BME280;60995;52.154;4.498;2022-12-22T00:46:54;100283.53;;;10.72;87.91
72414;BME280;60995;52.154;4.498;2022-12-22T00:49:29;100274.78;;;10.79;87.59
72414;BME280;60995;52.154;4.498;2022-12-22T00:52:06;100288.56;;;10.67;88.28
72414;BME280;60995;52.154;4.498;2022-12-22T00:54:41;100285.44;;;10.62;88.73
72414;BME280;60995;52.154;4.498;2022-12-22T00:57:16;100279.03;;;10.63;89.05
72414;BME280;60995;52.154;4.498;2022-12-22T00:59:53;100272.50;;;10.56;89.13
72414;BME280;60995;52.154;4.498;2022-12-22T01:02:29;100274.00;;;10.68;88.10
72414;BME280;60995;52.154;4.498;2022-12-22T01:05:04;100275.47;;;10.81;87.67
72414;BME280;60995;52.154;4.498;2022-12-22T01:07:39;100270.88;;;10.63;88.13
72414;BME280;60995;52.154;4.498;2022-12-22T01:10:14;100274.31;;;10.65;88.10
72414;BME280;60995;52.154;4.498;2022-12-22T01:12:49;100271.59;;;10.65;87.85
72414;BME280;60995;52.154;4.498;2022-12-22T01:15:23;100274.59;;;10.62;88.72
72414;BME280;60995;52.154;4.498;2022-12-22T01:17:59;100285.97;;;10.75;87.92
72414;BME280;60995;52.154;4.498;2022-12-22T01:20:34;100273.25;;;10.76;88.11
72414;BME280;60995;52.154;4.498;2022-12-22T01:23:08;100271.09;;;10.98;86.65
72414;BME280;60995;52.154;4.498;2022-12-22T01:25:44;100266.84;;;10.95;86.87
72414;BME280;60995;52.154;4.498;2022-12-22T01:28:18;100253.88;;;10.89;86.69
72414;BME280;60995;52.154;4.498;2022-12-22T01:30:53;100261.16;;;11.06;86.05
72414;BME280;60995;52.154;4.498;2022-12-22T01:33:28;100260.38;;;10.96;86.18
72414;BME280;60995;52.154;4.498;2022-12-22T01:36:02;100265.28;;;10.92;86.77
72414;BME280;60995;52.154;4.498;2022-12-22T01:38:37;100263.72;;;10.90;86.59
72414;BME280;60995;52.154;4.498;2022-12-22T01:41:13;100260.69;;;10.93;86.79
72414;BME280;60995;52.154;4.498;2022-12-22T01:43:51;100263.81;;;10.98;86.52
72414;BME280;60995;52.154;4.498;2022-12-22T01:46:29;100261.00;;;10.90;86.60
72414;BME280;60995;52.154;4.498;2022-12-22T01:52:07;100245.56;;;10.90;86.59
72414;BME280;60995;52.154;4.498;2022-12-22T01:54:44;100250.38;;;10.97;86.92
72414;BME280;60995;52.154;4.498;2022-12-22T01:57:19;100247.88;;;10.85;87.18
72414;BME280;60995;52.154;4.498;2022-12-22T01:59:54;100246.03;;;10.86;87.21
72414;BME280;60995;52.154;4.498;2022-12-22T02:02:29;100247.84;;;10.95;86.93
72414;BME280;60995;52.154;4.498;2022-12-22T02:05:05;100246.28;;;10.92;86.48
72414;BME280;60995;52.154;4.498;2022-12-22T02:10:44;100247.13;;;10.93;86.80
72414;BME280;60995;52.154;4.498;2022-12-22T02:26:02;100230.38;;;10.98;86.51
72414;BME280;60995;52.154;4.498;2022-12-22T02:28:58;100224.63;;;11.19;85.89
72414;BME280;60995;52.154;4.498;2022-12-22T02:31:36;100227.13;;;11.12;85.67
72414;BME280;60995;52.154;4.498;2022-12-22T02:34:13;100215.31;;;11.03;86.33
72414;BME280;60995;52.154;4.498;2022-12-22T02:36:57;100211.91;;;11.01;86.62
72414;BME280;60995;52.154;4.498;2022-12-22T02:39:45;100209.34;;;11.18;85.85
72414;BME280;60995;52.154;4.498;2022-12-22T02:42:33;100203.13;;;11.07;85.78
72414;BME280;60995;52.154;4.498;2022-12-22T02:48:19;100209.00;;;11.21;85.52
72414;BME280;60995;52.154;4.498;2022-12-22T02:51:13;100206.78;;;11.16;85.03
72414;BME280;60995;52.154;4.498;2022-12-22T02:53:52;100210.75;;;11.04;86.41
72414;BME280;60995;52.154;4.498;2022-12-22T02:56:28;100200.81;;;11.13;86.35
72414;BME280;60995;52.154;4.498;2022-12-22T02:59:03;100195.06;;;11.16;85.55
72414;BME280;60995;52.154;4.498;2022-12-22T03:01:38;100180.81;;;11.14;85.56
72414;BME280;60995;52.154;4.498;2022-12-22T03:04:14;100187.78;;;10.98;86.23
72414;BME280;60995;52.154;4.498;2022-12-22T03:06:48;100177.78;;;10.99;87.00
72414;BME280;60995;52.154;4.498;2022-12-22T03:09:23;100175.94;;;10.99;86.66
72414;BME280;60995;52.154;4.498;2022-12-22T03:11:57;100174.28;;;11.06;86.28
72414;BME280;60995;52.154;4.498;2022-12-22T03:14:32;100179.94;;;11.13;86.08
72414;BME280;60995;52.154;4.498;2022-12-22T03:17:07;100181.38;;;10.99;86.48
72414;BME280;60995;52.154;4.498;2022-12-22T03:19:41;100181.75;;;10.86;86.71
72414;BME280;60995;52.154;4.498;2022-12-22T03:22:16;100178.09;;;10.96;87.02
72414;BME280;60995;52.154;4.498;2022-12-22T03:24:50;100182.03;;;11.01;87.03
72414;BME280;60995;52.154;4.498;2022-12-22T03:27:25;100179.09;;;11.13;86.61
72414;BME280;60995;52.154;4.498;2022-12-22T03:29:41;100169.50;;;11.00;87.02
72414;BME280;60995;52.154;4.498;2022-12-22T03:31:57;100169.19;;;11.03;86.98
72414;BME280;60995;52.154;4.498;2022-12-22T03:34:13;100169.91;;;10.87;87.33
72414;BME280;60995;52.154;4.498;2022-12-22T03:36:29;100170.66;;;10.98;87.38
72414;BME280;60995;52.154;4.498;2022-12-22T03:38:45;100178.66;;;10.99;87.17
72414;BME280;60995;52.154;4.498;2022-12-22T03:41:01;100180.81;;;11.14;87.06
72414;BME280;60995;52.154;4.498;2022-12-22T03:43:17;100175.66;;;11.11;87.04
72414;BME280;60995;52.154;4.498;2022-12-22T03:45:55;100176.00;;;11.07;87.06
72414;BME280;60995;52.154;4.498;2022-12-22T03:48:30;100182.81;;;11.12;86.92
72414;BME280;60995;52.154;4.498;2022-12-22T03:50:46;100179.41;;;11.09;87.24
72414;BME280;60995;52.154;4.498;2022-12-22T03:53:02;100176.69;;;11.09;86.91
72414;BME280;60995;52.154;4.498;2022-12-22T03:55:18;100181.38;;;10.99;87.06
72414;BME280;60995;52.154;4.498;2022-12-22T03:57:34;100193.78;;;11.02;87.33
72414;BME280;60995;52.154;4.498;2022-12-22T03:59:50;100183.44;;;11.05;87.41
72414;BME280;60995;52.154;4.498;2022-12-22T04:02:07;100190.03;;;11.03;87.37
72414;BME280;60995;52.154;4.498;2022-12-22T04:04:24;100194.72;;;10.92;87.49
72414;BME280;60995;52.154;4.498;2022-12-22T04:06:41;100198.44;;;10.91;87.45
72414;BME280;60995;52.154;4.498;2022-12-22T04:08:58;100199.59;;;10.89;87.66
72414;BME280;60995;52.154;4.498;2022-12-22T04:11:14;100206.00;;;10.70;88.08
72414;BME280;60995;52.154;4.498;2022-12-22T04:13:50;100200.13;;;10.74;87.78
72414;BME280;60995;52.154;4.498;2022-12-22T04:16:06;100201.13;;;10.73;87.45
72414;BME280;60995;52.154;4.498;2022-12-22T04:18:22;100197.50;;;10.83;87.28
72414;BME280;60995;52.154;4.498;2022-12-22T04:20:38;100198.19;;;10.85;87.36
72414;BME280;60995;52.154;4.498;2022-12-22T04:22:55;100192.06;;;10.83;85.75
72414;BME280;60995;52.154;4.498;2022-12-22T04:25:11;100196.31;;;10.85;86.22
72414;BME280;60995;52.154;4.498;2022-12-22T04:27:27;100200.53;;;10.80;86.10
72414;BME280;60995;52.154;4.498;2022-12-22T04:29:44;100212.44;;;10.51;87.24
72414;BME280;60995;52.154;4.498;2022-12-22T04:32:00;100220.25;;;10.54;86.92
72414;BME280;60995;52.154;4.498;2022-12-22T04:34:16;100223.28;;;10.51;86.68
72414;BME280;60995;52.154;4.498;2022-12-22T04:36:32;100223.75;;;10.64;86.73
72414;BME280;60995;52.154;4.498;2022-12-22T04:38:48;100220.06;;;10.65;86.34
72414;BME280;60995;52.154;4.498;2022-12-22T04:41:04;100213.88;;;10.45;86.92
72414;BME280;60995;52.154;4.498;2022-12-22T04:43:21;100212.72;;;10.48;86.93
72414;BME280;60995;52.154;4.498;2022-12-22T04:45:37;100200.63;;;10.42;87.15
72414;BME280;60995;52.154;4.498;2022-12-22T04:47:53;100208.81;;;10.60;86.79
72414;BME280;60995;52.154;4.498;2022-12-22T04:50:09;100212.13;;;10.54;86.87
72414;BME280;60995;52.154;4.498;2022-12-22T04:52:25;100213.66;;;10.38;87.47
72414;BME280;60995;52.154;4.498;2022-12-22T04:54:41;100219.38;;;10.35;87.90
72414;BME280;60995;52.154;4.498;2022-12-22T04:56:58;100216.75;;;10.34;88.20
72414;BME280;60995;52.154;4.498;2022-12-22T04:59:14;100219.88;;;10.49;87.35
72414;BME280;60995;52.154;4.498;2022-12-22T05:01:30;100231.09;;;10.26;87.61
72414;BME280;60995;52.154;4.498;2022-12-22T05:03:46;100232.66;;;10.29;88.10
72414;BME280;60995;52.154;4.498;2022-12-22T05:06:02;100236.41;;;10.18;88.77
72414;BME280;60995;52.154;4.498;2022-12-22T05:08:18;100240.81;;;10.19;88.48
72414;BME280;60995;52.154;4.498;2022-12-22T05:10:34;100242.63;;;10.28;88.32
72414;BME280;60995;52.154;4.498;2022-12-22T05:12:51;100252.00;;;10.34;88.65
72414;BME280;60995;52.154;4.498;2022-12-22T05:15:09;100245.34;;;10.28;88.75
72414;BME280;60995;52.154;4.498;2022-12-22T05:17:26;100247.50;;;10.24;88.04
72414;BME280;60995;52.154;4.498;2022-12-22T05:19:42;100240.75;;;10.38;87.91
72414;BME280;60995;52.154;4.498;2022-12-22T05:21:58;100242.41;;;10.12;88.23
72414;BME280;60995;52.154;4.498;2022-12-22T05:24:14;100242.72;;;10.08;88.50
72414;BME280;60995;52.154;4.498;2022-12-22T05:26:30;100243.13;;;10.14;88.64
72414;BME280;60995;52.154;4.498;2022-12-22T05:28:46;100243.59;;;10.09;88.47
72414;BME280;60995;52.154;4.498;2022-12-22T05:31:14;100249.03;;;9.99;88.67
72414;BME280;60995;52.154;4.498;2022-12-22T05:33:32;100249.34;;;9.96;88.94
72414;BME280;60995;52.154;4.498;2022-12-22T05:35:48;100246.91;;;9.93;89.29
72414;BME280;60995;52.154;4.498;2022-12-22T05:38:04;100248.06;;;9.90;88.75
72414;BME280;60995;52.154;4.498;2022-12-22T05:40:20;100252.66;;;9.90;88.63
72414;BME280;60995;52.154;4.498;2022-12-22T05:42:36;100253.81;;;9.77;88.91
72414;BME280;60995;52.154;4.498;2022-12-22T05:44:52;100255.53;;;9.79;88.45
72414;BME280;60995;52.154;4.498;2022-12-22T05:47:08;100258.97;;;9.71;88.75
72414;BME280;60995;52.154;4.498;2022-12-22T05:49:24;100265.72;;;9.57;89.05
72414;BME280;60995;52.154;4.498;2022-12-22T05:51:40;100263.84;;;9.57;88.41
72414;BME280;60995;52.154;4.498;2022-12-22T05:53:56;100264.16;;;9.44;88.49
72414;BME280;60995;52.154;4.498;2022-12-22T05:56:12;100256.75;;;9.27;88.69
72414;BME280;60995;52.154;4.498;2022-12-22T05:58:28;100261.88;;;9.30;88.01
72414;BME280;60995;52.154;4.498;2022-12-22T06:00:44;100265.59;;;9.29;88.37
72414;BME280;60995;52.154;4.498;2022-12-22T06:03:00;100273.44;;;9.13;88.81
72414;BME280;60995;52.154;4.498;2022-12-22T06:05:16;100281.13;;;9.07;88.59
72414;BME280;60995;52.154;4.498;2022-12-22T06:07:32;100275.84;;;8.96;88.29
72414;BME280;60995;52.154;4.498;2022-12-22T06:09:49;100282.53;;;8.92;88.92
72414;BME280;60995;52.154;4.498;2022-12-22T06:12:05;100286.09;;;8.83;89.18
72414;BME280;60995;52.154;4.498;2022-12-22T06:14:21;100283.81;;;8.88;89.43
72414;BME280;60995;52.154;4.498;2022-12-22T06:16:37;100292.47;;;8.82;89.86
72414;BME280;60995;52.154;4.498;2022-12-22T06:18:53;100299.88;;;8.80;89.49
72414;BME280;60995;52.154;4.498;2022-12-22T06:21:09;100295.88;;;8.84;89.82
72414;BME280;60995;52.154;4.498;2022-12-22T06:23:25;100296.03;;;8.82;89.67
72414;BME280;60995;52.154;4.498;2022-12-22T06:25:42;100306.00;;;8.82;89.50
72414;BME280;60995;52.154;4.498;2022-12-22T06:27:58;100314.28;;;8.80;89.28
72414;BME280;60995;52.154;4.498;2022-12-22T06:30:14;100320.22;;;8.84;89.69
72414;BME280;60995;52.154;4.498;2022-12-22T06:32:31;100315.84;;;8.83;89.90
72414;BME280;60995;52.154;4.498;2022-12-22T06:34:50;100308.16;;;8.88;89.75
72414;BME280;60995;52.154;4.498;2022-12-22T06:37:07;100310.28;;;8.94;89.74
72414;BME280;60995;52.154;4.498;2022-12-22T06:39:23;100313.72;;;8.96;89.40
72414;BME280;60995;52.154;4.498;2022-12-22T06:41:39;100320.56;;;9.00;89.09
72414;BME280;60995;52.154;4.498;2022-12-22T06:44:14;100335.06;;;8.99;88.80
72414;BME280;60995;52.154;4.498;2022-12-22T06:46:30;100331.78;;;8.86;89.42
72414;BME280;60995;52.154;4.498;2022-12-22T06:48:46;100337.94;;;8.88;89.36
72414;BME280;60995;52.154;4.498;2022-12-22T06:51:02;100344.31;;;8.87;89.26
72414;BME280;60995;52.154;4.498;2022-12-22T06:53:18;100339.84;;;8.76;89.46
72414;BME280;60995;52.154;4.498;2022-12-22T06:55:34;100336.59;;;8.72;89.41
72414;BME280;60995;52.154;4.498;2022-12-22T06:57:51;100335.59;;;8.73;89.41
72414;BME280;60995;52.154;4.498;2022-12-22T07:00:07;100332.72;;;8.65;89.27
72414;BME280;60995;52.154;4.498;2022-12-22T07:02:24;100336.25;;;8.56;89.34
72414;BME280;60995;52.154;4.498;2022-12-22T07:04:40;100343.63;;;8.54;89.01
72414;BME280;60995;52.154;4.498;2022-12-22T07:06:56;100342.84;;;8.42;88.97
72414;BME280;60995;52.154;4.498;2022-12-22T07:09:12;100337.13;;;8.35;89.23
72414;BME280;60995;52.154;4.498;2022-12-22T07:11:29;100350.75;;;8.55;88.47
72414;BME280;60995;52.154;4.498;2022-12-22T07:13:45;100347.94;;;8.35;88.68
72414;BME280;60995;52.154;4.498;2022-12-22T07:16:01;100348.75;;;8.26;88.78
72414;BME280;60995;52.154;4.498;2022-12-22T07:18:19;100353.00;;;8.19;88.73
72414;BME280;60995;52.154;4.498;2022-12-22T07:20:35;100364.59;;;8.09;89.02
72414;BME280;60995;52.154;4.498;2022-12-22T07:22:51;100369.44;;;8.06;89.21
72414;BME280;60995;52.154;4.498;2022-12-22T07:25:07;100369.09;;;7.99;88.91
72414;BME280;60995;52.154;4.498;2022-12-22T07:27:23;100372.19;;;7.94;88.61
72414;BME280;60995;52.154;4.498;2022-12-22T07:29:40;100365.66;;;7.97;89.20
72414;BME280;60995;52.154;4.498;2022-12-22T07:31:56;100371.53;;;8.02;89.24
72414;BME280;60995;52.154;4.498;2022-12-22T07:34:12;100370.78;;;8.00;89.47
72414;BME280;60995;52.154;4.498;2022-12-22T07:36:28;100383.47;;;8.00;89.18
72414;BME280;60995;52.154;4.498;2022-12-22T07:38:45;100381.88;;;7.97;89.32
72414;BME280;60995;52.154;4.498;2022-12-22T07:41:04;100390.72;;;7.99;89.62
72414;BME280;60995;52.154;4.498;2022-12-22T07:43:42;100388.72;;;8.01;89.59
72414;BME280;60995;52.154;4.498;2022-12-22T07:45:58;100397.56;;;8.03;89.06
72414;BME280;60995;52.154;4.498;2022-12-22T07:48:14;100397.25;;;7.97;89.20
72414;BME280;60995;52.154;4.498;2022-12-22T07:50:48;100385.88;;;8.03;88.85
72414;BME280;60995;52.154;4.498;2022-12-22T07:53:04;100396.16;;;8.09;88.44
72414;BME280;60995;52.154;4.498;2022-12-22T07:55:20;100387.75;;;8.02;88.85
72414;BME280;60995;52.154;4.498;2022-12-22T07:57:37;100390.16;;;8.05;88.40
72414;BME280;60995;52.154;4.498;2022-12-22T07:59:53;100399.00;;;8.07;88.96
72414;BME280;60995;52.154;4.498;2022-12-22T08:02:10;100400.25;;;8.03;88.82
72414;BME280;60995;52.154;4.498;2022-12-22T08:04:26;100414.63;;;8.04;88.94
72414;BME280;60995;52.154;4.498;2022-12-22T08:06:42;100422.72;;;8.04;88.92
72414;BME280;60995;52.154;4.498;2022-12-22T08:08:59;100421.59;;;8.06;89.36
72414;BME280;60995;52.154;4.498;2022-12-22T08:11:15;100419.03;;;8.05;88.72
72414;BME280;60995;52.154;4.498;2022-12-22T08:13:32;100422.88;;;8.02;89.01
72414;BME280;60995;52.154;4.498;2022-12-22T08:15:49;100435.63;;;8.00;89.15
72414;BME280;60995;52.154;4.498;2022-12-22T08:18:05;100440.72;;;8.15;89.20
72414;BME280;60995;52.154;4.498;2022-12-22T08:20:21;100437.50;;;8.21;88.62
72414;BME280;60995;52.154;4.498;2022-12-22T08:22:37;100440.72;;;8.15;89.13
72414;BME280;60995;52.154;4.498;2022-12-22T08:24:53;100441.16;;;8.20;88.84
72414;BME280;60995;52.154;4.498;2022-12-22T08:27:13;100451.41;;;8.16;88.57
72414;BME280;60995;52.154;4.498;2022-12-22T08:29:40;100457.84;;;8.25;88.89
72414;BME280;60995;52.154;4.498;2022-12-22T08:32:00;100455.69;;;8.19;88.98
72414;BME280;60995;52.154;4.498;2022-12-22T08:34:17;100456.72;;;8.27;88.69
72414;BME280;60995;52.154;4.498;2022-12-22T08:36:35;100455.63;;;8.30;88.99
72414;BME280;60995;52.154;4.498;2022-12-22T08:38:54;100459.84;;;8.44;88.80
72414;BME280;60995;52.154;4.498;2022-12-22T08:41:11;100456.81;;;8.58;88.18
72414;BME280;60995;52.154;4.498;2022-12-22T08:43:30;100454.56;;;8.64;88.17
72414;BME280;60995;52.154;4.498;2022-12-22T08:45:47;100463.41;;;8.66;87.70
72414;BME280;60995;52.154;4.498;2022-12-22T08:48:03;100470.44;;;8.78;87.46
72414;BME280;60995;52.154;4.498;2022-12-22T08:50:19;100479.81;;;8.74;87.27
72414;BME280;60995;52.154;4.498;2022-12-22T08:52:36;100475.16;;;8.86;87.69
72414;BME280;60995;52.154;4.498;2022-12-22T08:54:52;100469.84;;;9.05;87.80
72414;BME280;60995;52.154;4.498;2022-12-22T08:57:08;100475.31;;;9.25;87.09
72414;BME280;60995;52.154;4.498;2022-12-22T08:59:25;100488.25;;;9.21;86.02
72414;BME280;60995;52.154;4.498;2022-12-22T09:01:41;100485.69;;;10.00;88.86
72414;BME280;60995;52.154;4.498;2022-12-22T09:03:59;100475.34;;;11.37;85.89
72414;BME280;60995;52.154;4.498;2022-12-22T09:06:16;100473.66;;;12.71;77.54
72414;BME280;60995;52.154;4.498;2022-12-22T09:08:33;100474.66;;;13.82;72.33
72414;BME280;60995;52.154;4.498;2022-12-22T09:10:49;100473.63;;;14.82;70.06
72414;BME280;60995;52.154;4.498;2022-12-22T09:13:05;100477.84;;;15.49;67.25
72414;BME280;60995;52.154;4.498;2022-12-22T09:15:21;100482.97;;;16.30;62.55
72414;BME280;60995;52.154;4.498;2022-12-22T09:17:37;100483.59;;;16.55;63.77
72414;BME280;60995;52.154;4.498;2022-12-22T09:19:53;100472.34;;;17.03;64.18
72414;BME280;60995;52.154;4.498;2022-12-22T09:22:09;100480.19;;;17.21;59.38
72414;BME280;60995;52.154;4.498;2022-12-22T09:24:26;100474.13;;;17.11;58.47
72414;BME280;60995;52.154;4.498;2022-12-22T09:26:42;100474.63;;;17.14;58.53
72414;BME280;60995;52.154;4.498;2022-12-22T09:28:58;100474.94;;;17.56;56.40
72414;BME280;60995;52.154;4.498;2022-12-22T09:31:14;100477.69;;;17.78;55.15
72414;BME280;60995;52.154;4.498;2022-12-22T09:33:31;100489.59;;;18.00;52.85
72414;BME280;60995;52.154;4.498;2022-12-22T09:35:48;100488.22;;;17.74;53.58
72414;BME280;60995;52.154;4.498;2022-12-22T09:38:04;100486.88;;;17.48;53.34
72414;BME280;60995;52.154;4.498;2022-12-22T09:40:20;100492.81;;;18.25;52.41
72414;BME280;60995;52.154;4.498;2022-12-22T09:42:36;100504.16;;;18.22;51.67
72414;BME280;60995;52.154;4.498;2022-12-22T09:44:53;100489.22;;;19.10;50.50
72414;BME280;60995;52.154;4.498;2022-12-22T09:49:44;100510.75;;;17.69;53.94
72414;BME280;60995;52.154;4.498;2022-12-22T09:52:01;100503.91;;;17.80;52.71
72414;BME280;60995;52.154;4.498;2022-12-22T09:54:18;100512.41;;;18.44;51.06
72414;BME280;60995;52.154;4.498;2022-12-22T09:56:35;100511.81;;;19.33;49.22
72414;BME280;60995;52.154;4.498;2022-12-22T09:58:52;100503.19;;;19.08;48.59
72414;BME280;60995;52.154;4.498;2022-12-22T10:06:42;100513.53;;;19.83;47.31
72414;BME280;60995;52.154;4.498;2022-12-22T10:09:16;100513.88;;;19.66;46.05
72414;BME280;60995;52.154;4.498;2022-12-22T10:11:36;100511.44;;;19.50;48.30
72414;BME280;60995;52.154;4.498;2022-12-22T10:13:52;100509.69;;;18.72;49.40
72414;BME280;60995;52.154;4.498;2022-12-22T10:16:18;100502.47;;;19.34;48.56
72414;BME280;60995;52.154;4.498;2022-12-22T10:18:39;100502.16;;;19.51;48.21
72414;BME280;60995;52.154;4.498;2022-12-22T10:21:11;100516.34;;;18.63;49.36
72414;BME280;60995;52.154;4.498;2022-12-22T10:23:29;100508.44;;;17.88;52.86
72414;BME280;60995;52.154;4.498;2022-12-22T10:28:12;100514.94;;;17.65;52.44
72414;BME280;60995;52.154;4.498;2022-12-22T10:30:35;100515.13;;;17.49;52.73
72414;BME280;60995;52.154;4.498;2022-12-22T10:33:13;100524.34;;;16.88;55.82
72414;BME280;60995;52.154;4.498;2022-12-22T10:35:50;100514.38;;;16.95;55.33
72414;BME280;60995;52.154;4.498;2022-12-22T10:40:32;100517.63;;;16.76;55.60
72414;BME280;60995;52.154;4.498;2022-12-22T10:42:58;100530.91;;;16.02;57.36
72414;BME280;60995;52.154;4.498;2022-12-22T10:45:20;100525.75;;;15.28;60.06
72414;BME280;60995;52.154;4.498;2022-12-22T10:47:38;100529.28;;;15.45;59.79
72414;BME280;60995;52.154;4.498;2022-12-22T10:50:03;100525.06;;;16.52;57.03
72414;BME280;60995;52.154;4.498;2022-12-22T10:52:21;100532.59;;;16.50;57.58
72414;BME280;60995;52.154;4.498;2022-12-22T10:54:38;100534.69;;;16.48;57.14
72414;BME280;60995;52.154;4.498;2022-12-22T10:56:57;100527.06;;;16.96;55.44
72414;BME280;60995;52.154;4.498;2022-12-22T10:59:17;100533.28;;;16.90;56.03
72414;BME280;60995;52.154;4.498;2022-12-22T11:01:35;100535.47;;;17.25;54.43
72414;BME280;60995;52.154;4.498;2022-12-22T11:03:52;100539.84;;;17.34;54.15
72414;BME280;60995;52.154;4.498;2022-12-22T11:06:10;100545.56;;;16.94;54.72
72414;BME280;60995;52.154;4.498;2022-12-22T11:08:27;100535.91;;;16.45;55.92
72414;BME280;60995;52.154;4.498;2022-12-22T11:13:50;100534.06;;;15.51;58.80
72414;BME280;60995;52.154;4.498;2022-12-22T11:21:15;100551.78;;;14.33;62.46
72414;BME280;60995;52.154;4.498;2022-12-22T11:28:35;100569.13;;;13.22;65.38
72414;BME280;60995;52.154;4.498;2022-12-22T11:31:09;100559.31;;;13.03;66.16
72414;BME280;60995;52.154;4.498;2022-12-22T11:33:44;100566.75;;;12.74;67.31
72414;BME280;60995;52.154;4.498;2022-12-22T11:51:40;100561.47;;;10.70;76.26
72414;BME280;60995;52.154;4.498;2022-12-22T11:56:37;100564.44;;;10.18;78.58
72414;BME280;60995;52.154;4.498;2022-12-22T12:09:28;100547.91;;;10.70;75.56
72414;BME280;60995;52.154;4.498;2022-12-22T12:12:02;100547.50;;;10.55;75.94
72414;BME280;60995;52.154;4.498;2022-12-22T12:14:33;100546.19;;;10.10;77.16
72414;BME280;60995;52.154;4.498;2022-12-22T12:16:57;100549.31;;;9.86;78.57
72414;BME280;60995;52.154;4.498;2022-12-22T12:25:07;100552.03;;;10.05;78.18
72414;BME280;60995;52.154;4.498;2022-12-22T12:30:15;100540.19;;;9.87;79.06
72414;BME280;60995;52.154;4.498;2022-12-22T12:32:39;100551.47;;;10.02;77.21
72414;BME280;60995;52.154;4.498;2022-12-22T12:35:05;100551.06;;;10.26;76.80
72414;BME280;60995;52.154;4.498;2022-12-22T12:37:36;100548.22;;;10.37;76.10
72414;BME280;60995;52.154;4.498;2022-12-22T12:39:57;100543.91;;;10.35;76.66
72414;BME280;60995;52.154;4.498;2022-12-22T12:44:45;100541.06;;;10.26;77.02
72414;BME280;60995;52.154;4.498;2022-12-22T12:51:49;100541.19;;;10.15;77.10
72414;BME280;60995;52.154;4.498;2022-12-22T12:54:32;100539.06;;;10.19;77.27
72414;BME280;60995;52.154;4.498;2022-12-22T12:59:26;100532.31;;;10.82;75.54
72414;BME280;60995;52.154;4.498;2022-12-22T13:01:56;100538.94;;;10.50;76.55
72414;BME280;60995;52.154;4.498;2022-12-22T13:04:49;100525.75;;;10.74;75.46
72414;BME280;60995;52.154;4.498;2022-12-22T13:07:08;100525.38;;;10.40;76.46
72414;BME280;60995;52.154;4.498;2022-12-22T13:09:24;100517.94;;;10.52;75.82
72414;BME280;60995;52.154;4.498;2022-12-22T13:11:44;100506.50;;;10.58;76.24
72414;BME280;60995;52.154;4.498;2022-12-22T13:14:00;100498.53;;;10.47;76.81
72414;BME280;60995;52.154;4.498;2022-12-22T13:20:52;100494.75;;;10.77;75.75
72414;BME280;60995;52.154;4.498;2022-12-22T13:23:11;100495.94;;;11.02;75.10
72414;BME280;60995;52.154;4.498;2022-12-22T13:25:40;100489.06;;;10.70;76.47
72414;BME280;60995;52.154;4.498;2022-12-22T13:28:02;100489.84;;;11.00;75.64
72414;BME280;60995;52.154;4.498;2022-12-22T13:30:19;100485.56;;;10.88;75.80
72414;BME280;60995;52.154;4.498;2022-12-22T13:32:36;100480.41;;;10.95;76.18
72414;BME280;60995;52.154;4.498;2022-12-22T13:37:38;100466.09;;;11.02;75.75
72414;BME280;60995;52.154;4.498;2022-12-22T13:40:04;100466.56;;;11.25;75.60
72414;BME280;60995;52.154;4.498;2022-12-22T13:42:38;100462.97;;;10.97;76.27
72414;BME280;60995;52.154;4.498;2022-12-22T13:44:57;100463.47;;;11.11;76.48
72414;BME280;60995;52.154;4.498;2022-12-22T13:47:15;100465.03;;;11.41;74.38
72414;BME280;60995;52.154;4.498;2022-12-22T13:49:32;100457.00;;;11.21;75.23
72414;BME280;60995;52.154;4.498;2022-12-22T13:51:50;100463.94;;;11.06;75.69
72414;BME280;60995;52.154;4.498;2022-12-22T13:54:15;100456.34;;;11.09;75.32
72414;BME280;60995;52.154;4.498;2022-12-22T13:56:37;100452.34;;;11.04;76.44
72414;BME280;60995;52.154;4.498;2022-12-22T13:58:56;100449.69;;;10.94;77.07
72414;BME280;60995;52.154;4.498;2022-12-22T14:01:15;100450.09;;;10.62;79.37
72414;BME280;60995;52.154;4.498;2022-12-22T14:03:33;100447.00;;;10.84;78.28
72414;BME280;60995;52.154;4.498;2022-12-22T14:05:50;100439.81;;;10.65;78.36
72414;BME280;60995;52.154;4.498;2022-12-22T14:08:06;100436.69;;;10.98;76.91
72414;BME280;60995;52.154;4.498;2022-12-22T14:10:41;100430.78;;;10.74;77.63